Terminal Aerodrome Forecast
Issued by NWS Cleveland, OH

Home | Current Version | Previous Version | Text Only | Print | Product List | Glossary On
Versions: 1 2 3 4 5 6 7 8 9 10 11 12 13 14 15 16 17 18 19 20 21 22 23 24 25
000
FTUS41 KCLE 201100
TAFMFD
TAF
KMFD 201120Z 2012/2112 18006KT P6SM SCT100 BKN150
     FM201500 24010KT P6SM BKN035
     FM211000 VRB04KT 4SM BR FEW012 SCT100=

USA.gov is the U.S. government's official web portal to all federal, state and local government web resources and services.